sensor_id;sensor_type;location;lat;lon;timestamp;pressure;altitude;pressure_sealevel;temperature;humidity
59487;BME280;45298;54.918;73.504;2023-07-29T00:00:17;98669.03;;;19.47;79.31
59487;BME280;45298;54.918;73.504;2023-07-29T00:02:47;98665.97;;;19.51;79.17
59487;BME280;45298;54.918;73.504;2023-07-29T00:05:16;98672.44;;;19.56;79.61
59487;BME280;45298;54.918;73.504;2023-07-29T00:07:45;98669.75;;;19.56;79.89
59487;BME280;45298;54.918;73.504;2023-07-29T00:10:14;98606.69;;;19.22;79.80
59487;BME280;45298;54.918;73.504;2023-07-29T00:12:43;98676.06;;;19.63;79.75
59487;BME280;45298;54.918;73.504;2023-07-29T00:15:12;98681.97;;;19.74;79.88
59487;BME280;45298;54.918;73.504;2023-07-29T00:17:41;98677.91;;;19.78;79.97
59487;BME280;45298;54.918;73.504;2023-07-29T00:20:10;98660.72;;;19.79;79.97
59487;BME280;45298;54.918;73.504;2023-07-29T00:22:39;98668.38;;;19.90;79.78
59487;BME280;45298;54.918;73.504;2023-07-29T00:25:08;98661.94;;;19.91;79.96
59487;BME280;45298;54.918;73.504;2023-07-29T00:27:37;98671.50;;;19.94;80.03
59487;BME280;45298;54.918;73.504;2023-07-29T00:30:06;98641.31;;;19.84;79.66
59487;BME280;45298;54.918;73.504;2023-07-29T00:32:36;98650.41;;;19.98;79.45
59487;BME280;45298;54.918;73.504;2023-07-29T00:35:06;98660.94;;;20.14;79.30
59487;BME280;45298;54.918;73.504;2023-07-29T00:37:39;98658.88;;;20.16;79.78
59487;BME280;45298;54.918;73.504;2023-07-29T00:40:29;98665.88;;;20.32;79.69
59487;BME280;45298;54.918;73.504;2023-07-29T00:42:58;98618.72;;;20.15;79.54
59487;BME280;45298;54.918;73.504;2023-07-29T00:45:29;98651.72;;;20.45;79.52
59487;BME280;45298;54.918;73.504;2023-07-29T00:48:01;98665.72;;;20.62;79.29
59487;BME280;45298;54.918;73.504;2023-07-29T00:50:31;98662.25;;;20.68;79.34
59487;BME280;45298;54.918;73.504;2023-07-29T00:53:01;98653.56;;;20.73;78.73
59487;BME280;45298;54.918;73.504;2023-07-29T00:55:30;98659.16;;;20.93;78.93
59487;BME280;45298;54.918;73.504;2023-07-29T00:57:59;98642.38;;;20.98;78.81
59487;BME280;45298;54.918;73.504;2023-07-29T01:00:28;98644.09;;;21.06;78.64
59487;BME280;45298;54.918;73.504;2023-07-29T01:02:57;98651.44;;;21.19;78.59
59487;BME280;45298;54.918;73.504;2023-07-29T01:05:32;98650.91;;;21.37;78.42
59487;BME280;45298;54.918;73.504;2023-07-29T01:08:31;98667.09;;;21.79;77.22
59487;BME280;45298;54.918;73.504;2023-07-29T01:11:11;98661.06;;;22.72;75.09
59487;BME280;45298;54.918;73.504;2023-07-29T01:13:54;98658.13;;;22.60;75.21
59487;BME280;45298;54.918;73.504;2023-07-29T01:16:42;98658.13;;;22.67;74.60
59487;BME280;45298;54.918;73.504;2023-07-29T01:22:04;98657.50;;;22.92;73.52
59487;BME280;45298;54.918;73.504;2023-07-29T01:24:34;98611.09;;;23.02;72.15
59487;BME280;45298;54.918;73.504;2023-07-29T01:27:03;98658.47;;;23.90;69.50
59487;BME280;45298;54.918;73.504;2023-07-29T01:29:33;98647.63;;;23.97;68.64
59487;BME280;45298;54.918;73.504;2023-07-29T01:32:10;98637.75;;;24.67;67.08
59487;BME280;45298;54.918;73.504;2023-07-29T01:34:48;98627.19;;;24.84;66.27
59487;BME280;45298;54.918;73.504;2023-07-29T01:37:26;98633.09;;;24.49;67.24
59487;BME280;45298;54.918;73.504;2023-07-29T01:39:58;98622.97;;;24.05;68.61
59487;BME280;45298;54.918;73.504;2023-07-29T01:42:29;98641.19;;;23.84;68.95
59487;BME280;45298;54.918;73.504;2023-07-29T01:45:00;98648.78;;;23.62;69.06
59487;BME280;45298;54.918;73.504;2023-07-29T01:47:29;98646.72;;;24.03;67.83
59487;BME280;45298;54.918;73.504;2023-07-29T01:50:00;98644.94;;;23.83;67.73
59487;BME280;45298;54.918;73.504;2023-07-29T01:52:29;98648.72;;;23.82;68.28
59487;BME280;45298;54.918;73.504;2023-07-29T01:54:58;98664.88;;;23.96;67.66
59487;BME280;45298;54.918;73.504;2023-07-29T01:57:27;98639.16;;;23.73;67.58
59487;BME280;45298;54.918;73.504;2023-07-29T01:59:56;98601.84;;;23.43;67.51
59487;BME280;45298;54.918;73.504;2023-07-29T02:02:25;98637.16;;;23.62;68.00
59487;BME280;45298;54.918;73.504;2023-07-29T02:04:57;98635.81;;;23.78;67.14
59487;BME280;45298;54.918;73.504;2023-07-29T02:07:26;98633.88;;;23.92;66.36
59487;BME280;45298;54.918;73.504;2023-07-29T02:09:55;98636.97;;;24.02;65.85
59487;BME280;45298;54.918;73.504;2023-07-29T02:12:24;98647.38;;;24.37;64.70
59487;BME280;45298;54.918;73.504;2023-07-29T02:14:53;98651.47;;;24.72;64.82
59487;BME280;45298;54.918;73.504;2023-07-29T02:17:22;98659.59;;;24.97;64.00
59487;BME280;45298;54.918;73.504;2023-07-29T02:19:53;98644.34;;;24.78;63.76
59487;BME280;45298;54.918;73.504;2023-07-29T02:22:22;98651.44;;;24.79;64.29
59487;BME280;45298;54.918;73.504;2023-07-29T02:24:51;98656.72;;;24.92;63.93
59487;BME280;45298;54.918;73.504;2023-07-29T02:27:20;98638.19;;;24.89;63.96
59487;BME280;45298;54.918;73.504;2023-07-29T02:29:49;98644.41;;;25.15;63.63
59487;BME280;45298;54.918;73.504;2023-07-29T02:32:18;98638.06;;;25.21;63.53
59487;BME280;45298;54.918;73.504;2023-07-29T02:34:48;98652.47;;;25.40;63.17
59487;BME280;45298;54.918;73.504;2023-07-29T02:37:17;98643.81;;;25.50;62.98
59487;BME280;45298;54.918;73.504;2023-07-29T02:39:46;98635.38;;;25.58;62.73
59487;BME280;45298;54.918;73.504;2023-07-29T02:42:15;98649.06;;;25.63;63.20
59487;BME280;45298;54.918;73.504;2023-07-29T02:44:44;98655.50;;;25.69;63.39
59487;BME280;45298;54.918;73.504;2023-07-29T02:47:13;98632.06;;;25.56;62.92
59487;BME280;45298;54.918;73.504;2023-07-29T02:49:42;98652.63;;;25.64;62.86
59487;BME280;45298;54.918;73.504;2023-07-29T02:52:11;98636.13;;;25.47;63.09
59487;BME280;45298;54.918;73.504;2023-07-29T02:54:39;98604.91;;;25.38;63.17
59487;BME280;45298;54.918;73.504;2023-07-29T02:57:08;98609.75;;;25.54;63.25
59487;BME280;45298;54.918;73.504;2023-07-29T02:59:37;98648.13;;;25.88;62.77
59487;BME280;45298;54.918;73.504;2023-07-29T03:02:06;98651.88;;;26.06;62.82
59487;BME280;45298;54.918;73.504;2023-07-29T03:04:35;98634.97;;;26.04;62.49
59487;BME280;45298;54.918;73.504;2023-07-29T03:07:04;98636.56;;;26.12;62.61
59487;BME280;45298;54.918;73.504;2023-07-29T03:09:33;98637.75;;;26.16;62.35
59487;BME280;45298;54.918;73.504;2023-07-29T03:12:02;98634.84;;;26.10;63.19
59487;BME280;45298;54.918;73.504;2023-07-29T03:14:31;98629.38;;;26.17;63.19
59487;BME280;45298;54.918;73.504;2023-07-29T03:17:03;98640.25;;;26.29;63.38
59487;BME280;45298;54.918;73.504;2023-07-29T03:19:33;98636.50;;;26.42;63.68
59487;BME280;45298;54.918;73.504;2023-07-29T03:22:02;98646.91;;;26.45;63.41
59487;BME280;45298;54.918;73.504;2023-07-29T03:24:31;98632.03;;;26.36;63.10
59487;BME280;45298;54.918;73.504;2023-07-29T03:26:59;98648.56;;;26.46;63.69
59487;BME280;45298;54.918;73.504;2023-07-29T03:29:29;98617.47;;;26.18;63.55
59487;BME280;45298;54.918;73.504;2023-07-29T03:31:57;98641.84;;;26.37;63.79
59487;BME280;45298;54.918;73.504;2023-07-29T03:34:26;98655.22;;;26.50;64.19
59487;BME280;45298;54.918;73.504;2023-07-29T03:36:55;98673.78;;;26.77;63.97
59487;BME280;45298;54.918;73.504;2023-07-29T03:39:24;98671.66;;;26.79;63.80
59487;BME280;45298;54.918;73.504;2023-07-29T03:41:53;98666.09;;;26.50;64.22
59487;BME280;45298;54.918;73.504;2023-07-29T03:44:22;98677.97;;;26.37;64.67
59487;BME280;45298;54.918;73.504;2023-07-29T03:46:51;98667.72;;;26.09;65.08
59487;BME280;45298;54.918;73.504;2023-07-29T03:49:20;98676.47;;;26.11;65.35
59487;BME280;45298;54.918;73.504;2023-07-29T03:51:49;98685.06;;;26.08;65.78
59487;BME280;45298;54.918;73.504;2023-07-29T03:54:19;98673.53;;;25.94;66.34
59487;BME280;45298;54.918;73.504;2023-07-29T03:56:48;98687.38;;;25.92;66.49
59487;BME280;45298;54.918;73.504;2023-07-29T03:59:17;98645.09;;;25.66;66.39
59487;BME280;45298;54.918;73.504;2023-07-29T04:01:46;98680.53;;;25.71;67.01
59487;BME280;45298;54.918;73.504;2023-07-29T04:04:15;98676.16;;;25.52;66.79
59487;BME280;45298;54.918;73.504;2023-07-29T04:06:44;98649.59;;;25.35;67.23
59487;BME280;45298;54.918;73.504;2023-07-29T04:09:13;98668.31;;;25.62;67.25
59487;BME280;45298;54.918;73.504;2023-07-29T04:11:42;98668.16;;;25.75;67.43
59487;BME280;45298;54.918;73.504;2023-07-29T04:14:11;98687.56;;;25.79;67.29
59487;BME280;45298;54.918;73.504;2023-07-29T04:16:39;98674.03;;;25.72;67.22
59487;BME280;45298;54.918;73.504;2023-07-29T04:19:08;98686.94;;;25.77;67.32
59487;BME280;45298;54.918;73.504;2023-07-29T04:21:37;98648.66;;;25.48;67.64
59487;BME280;45298;54.918;73.504;2023-07-29T04:24:06;98682.03;;;25.86;66.89
59487;BME280;45298;54.918;73.504;2023-07-29T04:26:35;98684.97;;;25.84;66.69
59487;BME280;45298;54.918;73.504;2023-07-29T04:29:05;98660.06;;;25.87;66.30
59487;BME280;45298;54.918;73.504;2023-07-29T04:31:33;98671.72;;;26.06;66.21
59487;BME280;45298;54.918;73.504;2023-07-29T04:34:02;98648.50;;;26.22;66.34
59487;BME280;45298;54.918;73.504;2023-07-29T04:36:32;98652.72;;;26.37;65.73
59487;BME280;45298;54.918;73.504;2023-07-29T04:39:01;98667.28;;;26.54;65.19
59487;BME280;45298;54.918;73.504;2023-07-29T04:41:30;98658.25;;;26.42;65.34
59487;BME280;45298;54.918;73.504;2023-07-29T04:43:59;98665.72;;;26.47;65.68
59487;BME280;45298;54.918;73.504;2023-07-29T04:46:28;98653.56;;;26.61;64.58
59487;BME280;45298;54.918;73.504;2023-07-29T04:48:57;98661.53;;;26.87;64.64
59487;BME280;45298;54.918;73.504;2023-07-29T04:51:26;98670.63;;;27.04;63.89
59487;BME280;45298;54.918;73.504;2023-07-29T04:53:55;98668.63;;;27.23;63.35
59487;BME280;45298;54.918;73.504;2023-07-29T04:56:24;98647.47;;;27.13;62.82
59487;BME280;45298;54.918;73.504;2023-07-29T04:58:53;98691.47;;;27.10;62.82
59487;BME280;45298;54.918;73.504;2023-07-29T05:01:22;98671.09;;;27.01;62.96
59487;BME280;45298;54.918;73.504;2023-07-29T05:03:54;98688.16;;;27.08;63.08
59487;BME280;45298;54.918;73.504;2023-07-29T05:06:23;98680.13;;;27.13;63.53
59487;BME280;45298;54.918;73.504;2023-07-29T05:08:53;98684.84;;;27.06;62.94
59487;BME280;45298;54.918;73.504;2023-07-29T05:11:23;98683.44;;;27.04;62.69
59487;BME280;45298;54.918;73.504;2023-07-29T05:13:53;98679.16;;;26.84;63.33
59487;BME280;45298;54.918;73.504;2023-07-29T05:16:22;98688.22;;;26.66;63.24
59487;BME280;45298;54.918;73.504;2023-07-29T05:18:51;98686.00;;;26.32;63.41
59487;BME280;45298;54.918;73.504;2023-07-29T05:21:25;98683.31;;;26.44;63.26
59487;BME280;45298;54.918;73.504;2023-07-29T05:23:58;98702.88;;;26.65;63.08
59487;BME280;45298;54.918;73.504;2023-07-29T05:26:29;98651.50;;;26.33;62.62
59487;BME280;45298;54.918;73.504;2023-07-29T05:28:58;98695.13;;;26.38;63.23
59487;BME280;45298;54.918;73.504;2023-07-29T05:31:28;98708.97;;;26.48;63.01
59487;BME280;45298;54.918;73.504;2023-07-29T05:34:00;98699.16;;;26.47;62.39
59487;BME280;45298;54.918;73.504;2023-07-29T05:36:30;98700.03;;;26.29;62.31
59487;BME280;45298;54.918;73.504;2023-07-29T05:39:00;98707.28;;;26.35;62.07
59487;BME280;45298;54.918;73.504;2023-07-29T05:41:29;98712.06;;;26.21;61.72
59487;BME280;45298;54.918;73.504;2023-07-29T05:43:58;98730.19;;;26.09;62.24
59487;BME280;45298;54.918;73.504;2023-07-29T05:46:27;98713.56;;;25.87;62.31
59487;BME280;45298;54.918;73.504;2023-07-29T05:48:56;98727.69;;;25.77;62.97
59487;BME280;45298;54.918;73.504;2023-07-29T05:51:27;98700.91;;;25.43;62.67
59487;BME280;45298;54.918;73.504;2023-07-29T05:53:56;98690.31;;;25.35;63.31
59487;BME280;45298;54.918;73.504;2023-07-29T05:56:25;98739.59;;;25.57;63.58
59487;BME280;45298;54.918;73.504;2023-07-29T05:58:55;98733.56;;;25.74;63.48
59487;BME280;45298;54.918;73.504;2023-07-29T06:01:25;98752.75;;;26.09;63.25
59487;BME280;45298;54.918;73.504;2023-07-29T06:03:55;98728.78;;;26.25;62.20
59487;BME280;45298;54.918;73.504;2023-07-29T06:06:26;98733.09;;;26.45;61.59
59487;BME280;45298;54.918;73.504;2023-07-29T06:08:56;98750.00;;;26.59;61.75
59487;BME280;45298;54.918;73.504;2023-07-29T06:11:26;98746.78;;;26.50;61.21
59487;BME280;45298;54.918;73.504;2023-07-29T06:13:55;98749.09;;;26.65;61.21
59487;BME280;45298;54.918;73.504;2023-07-29T06:16:25;98741.09;;;26.39;61.26
59487;BME280;45298;54.918;73.504;2023-07-29T06:18:54;98746.81;;;26.19;61.52
59487;BME280;45298;54.918;73.504;2023-07-29T06:21:23;98765.25;;;26.17;62.06
59487;BME280;45298;54.918;73.504;2023-07-29T06:23:53;98755.88;;;25.94;62.45
59487;BME280;45298;54.918;73.504;2023-07-29T06:26:22;98768.69;;;25.87;62.65
59487;BME280;45298;54.918;73.504;2023-07-29T06:28:51;98731.66;;;25.56;63.34
59487;BME280;45298;54.918;73.504;2023-07-29T06:31:20;98767.88;;;25.68;62.77
59487;BME280;45298;54.918;73.504;2023-07-29T06:33:50;98763.09;;;25.45;63.30
59487;BME280;45298;54.918;73.504;2023-07-29T06:36:22;98769.25;;;25.33;63.27
59487;BME280;45298;54.918;73.504;2023-07-29T06:38:51;98741.50;;;25.31;63.30
59487;BME280;45298;54.918;73.504;2023-07-29T06:41:20;98776.47;;;25.65;62.64
59487;BME280;45298;54.918;73.504;2023-07-29T06:43:49;98786.91;;;25.87;62.20
59487;BME280;45298;54.918;73.504;2023-07-29T06:46:19;98771.41;;;26.06;61.76
59487;BME280;45298;54.918;73.504;2023-07-29T06:48:48;98771.25;;;26.38;60.69
59487;BME280;45298;54.918;73.504;2023-07-29T06:51:17;98777.31;;;26.82;60.73
59487;BME280;45298;54.918;73.504;2023-07-29T06:53:46;98765.28;;;27.02;59.67
59487;BME280;45298;54.918;73.504;2023-07-29T06:56:16;98766.47;;;27.18;59.25
59487;BME280;45298;54.918;73.504;2023-07-29T06:58:45;98770.03;;;27.30;58.72
59487;BME280;45298;54.918;73.504;2023-07-29T07:01:14;98737.16;;;27.32;58.33
59487;BME280;45298;54.918;73.504;2023-07-29T07:03:44;98771.56;;;27.38;58.53
59487;BME280;45298;54.918;73.504;2023-07-29T07:06:13;98778.09;;;27.25;58.57
59487;BME280;45298;54.918;73.504;2023-07-29T07:08:42;98791.78;;;27.19;58.47
59487;BME280;45298;54.918;73.504;2023-07-29T07:11:14;98700.09;;;26.41;58.56
59487;BME280;45298;54.918;73.504;2023-07-29T07:13:43;98794.72;;;26.63;58.66
59487;BME280;45298;54.918;73.504;2023-07-29T07:16:12;98804.94;;;26.37;59.23
59487;BME280;45298;54.918;73.504;2023-07-29T07:18:40;98807.31;;;26.45;59.26
59487;BME280;45298;54.918;73.504;2023-07-29T07:21:12;98812.03;;;26.38;59.30
59487;BME280;45298;54.918;73.504;2023-07-29T07:23:43;98793.25;;;26.48;57.98
59487;BME280;45298;54.918;73.504;2023-07-29T07:26:12;98779.66;;;26.48;58.29
59487;BME280;45298;54.918;73.504;2023-07-29T07:28:41;98791.28;;;26.98;57.88
59487;BME280;45298;54.918;73.504;2023-07-29T07:31:10;98805.13;;;26.96;57.84
59487;BME280;45298;54.918;73.504;2023-07-29T07:33:40;98797.59;;;27.10;57.93
59487;BME280;45298;54.918;73.504;2023-07-29T07:36:09;98792.53;;;27.26;57.18
59487;BME280;45298;54.918;73.504;2023-07-29T07:38:38;98788.50;;;27.05;57.15
59487;BME280;45298;54.918;73.504;2023-07-29T07:41:09;98798.69;;;26.79;57.56
59487;BME280;45298;54.918;73.504;2023-07-29T07:43:38;98809.16;;;26.63;58.57
59487;BME280;45298;54.918;73.504;2023-07-29T07:46:07;98789.19;;;26.69;58.27
59487;BME280;45298;54.918;73.504;2023-07-29T07:48:37;98798.09;;;26.77;58.05
59487;BME280;45298;54.918;73.504;2023-07-29T07:51:15;98804.22;;;26.72;57.50
59487;BME280;45298;54.918;73.504;2023-07-29T07:53:44;98801.69;;;26.59;57.36
59487;BME280;45298;54.918;73.504;2023-07-29T07:56:13;98768.78;;;26.18;57.99
59487;BME280;45298;54.918;73.504;2023-07-29T07:58:45;98815.47;;;26.45;58.53
59487;BME280;45298;54.918;73.504;2023-07-29T08:01:24;98817.88;;;26.53;57.94
59487;BME280;45298;54.918;73.504;2023-07-29T08:03:54;98775.13;;;26.42;57.82
59487;BME280;45298;54.918;73.504;2023-07-29T08:06:23;98807.13;;;26.89;58.79
59487;BME280;45298;54.918;73.504;2023-07-29T08:08:52;98827.59;;;26.92;58.33
59487;BME280;45298;54.918;73.504;2023-07-29T08:11:21;98827.03;;;26.71;58.12
59487;BME280;45298;54.918;73.504;2023-07-29T08:13:50;98828.44;;;26.43;58.04
59487;BME280;45298;54.918;73.504;2023-07-29T08:16:19;98824.44;;;26.15;58.31
59487;BME280;45298;54.918;73.504;2023-07-29T08:18:48;98827.56;;;25.93;59.01
59487;BME280;45298;54.918;73.504;2023-07-29T08:21:17;98839.03;;;25.95;58.97
59487;BME280;45298;54.918;73.504;2023-07-29T08:23:45;98817.41;;;26.26;58.73
59487;BME280;45298;54.918;73.504;2023-07-29T08:26:14;98831.31;;;26.79;57.75
59487;BME280;45298;54.918;73.504;2023-07-29T08:28:44;98824.38;;;27.25;56.87
59487;BME280;45298;54.918;73.504;2023-07-29T08:31:13;98808.63;;;27.15;56.63
59487;BME280;45298;54.918;73.504;2023-07-29T08:33:42;98805.88;;;26.73;56.41
59487;BME280;45298;54.918;73.504;2023-07-29T08:36:11;98831.59;;;26.59;57.03
59487;BME280;45298;54.918;73.504;2023-07-29T08:38:40;98835.28;;;26.34;57.11
59487;BME280;45298;54.918;73.504;2023-07-29T08:41:16;98833.88;;;26.06;57.90
59487;BME280;45298;54.918;73.504;2023-07-29T08:43:56;98827.09;;;25.78;59.22
59487;BME280;45298;54.918;73.504;2023-07-29T08:46:29;98849.34;;;25.68;59.46
59487;BME280;45298;54.918;73.504;2023-07-29T08:48:59;98836.56;;;25.50;59.88
59487;BME280;45298;54.918;73.504;2023-07-29T08:51:33;98787.75;;;25.18;60.24
59487;BME280;45298;54.918;73.504;2023-07-29T08:54:03;98844.13;;;25.41;60.23
59487;BME280;45298;54.918;73.504;2023-07-29T08:56:34;98838.28;;;25.12;60.65
59487;BME280;45298;54.918;73.504;2023-07-29T08:59:04;98850.16;;;25.18;60.73
59487;BME280;45298;54.918;73.504;2023-07-29T09:01:33;98848.75;;;25.09;61.01
59487;BME280;45298;54.918;73.504;2023-07-29T09:04:02;98848.69;;;25.47;60.64
59487;BME280;45298;54.918;73.504;2023-07-29T09:06:35;98843.69;;;25.88;60.18
59487;BME280;45298;54.918;73.504;2023-07-29T09:09:05;98848.16;;;26.01;59.79
59487;BME280;45298;54.918;73.504;2023-07-29T09:11:36;98860.19;;;26.12;59.53
59487;BME280;45298;54.918;73.504;2023-07-29T09:14:05;98851.00;;;26.13;59.01
59487;BME280;45298;54.918;73.504;2023-07-29T09:16:35;98851.34;;;26.17;59.01
59487;BME280;45298;54.918;73.504;2023-07-29T09:19:07;98845.84;;;26.23;58.57
59487;BME280;45298;54.918;73.504;2023-07-29T09:21:39;98856.84;;;26.47;58.33
59487;BME280;45298;54.918;73.504;2023-07-29T09:24:09;98841.28;;;26.54;57.52
59487;BME280;45298;54.918;73.504;2023-07-29T09:26:38;98846.06;;;26.40;57.08
59487;BME280;45298;54.918;73.504;2023-07-29T09:29:09;98871.94;;;26.43;57.23
59487;BME280;45298;54.918;73.504;2023-07-29T09:31:38;98852.91;;;26.06;57.85
59487;BME280;45298;54.918;73.504;2023-07-29T09:34:07;98852.69;;;25.89;58.10
59487;BME280;45298;54.918;73.504;2023-07-29T09:36:36;98866.34;;;26.01;58.37
59487;BME280;45298;54.918;73.504;2023-07-29T09:39:11;98855.22;;;26.28;57.44
59487;BME280;45298;54.918;73.504;2023-07-29T09:41:47;98865.88;;;26.60;57.06
59487;BME280;45298;54.918;73.504;2023-07-29T09:44:18;98857.25;;;26.81;56.50
59487;BME280;45298;54.918;73.504;2023-07-29T09:46:46;98855.53;;;26.99;56.11
59487;BME280;45298;54.918;73.504;2023-07-29T09:49:18;98842.28;;;26.91;55.69
59487;BME280;45298;54.918;73.504;2023-07-29T09:51:47;98850.19;;;26.92;56.07
59487;BME280;45298;54.918;73.504;2023-07-29T09:54:19;98852.63;;;27.12;56.31
59487;BME280;45298;54.918;73.504;2023-07-29T09:56:49;98849.19;;;27.17;55.21
59487;BME280;45298;54.918;73.504;2023-07-29T09:59:19;98846.97;;;27.26;55.13
59487;BME280;45298;54.918;73.504;2023-07-29T10:01:48;98851.28;;;27.03;55.45
59487;BME280;45298;54.918;73.504;2023-07-29T10:04:20;98846.16;;;26.83;55.00
59487;BME280;45298;54.918;73.504;2023-07-29T10:06:49;98845.22;;;26.70;55.36
59487;BME280;45298;54.918;73.504;2023-07-29T10:09:20;98850.16;;;26.80;55.88
59487;BME280;45298;54.918;73.504;2023-07-29T10:11:54;98870.56;;;26.71;55.84
59487;BME280;45298;54.918;73.504;2023-07-29T10:14:23;98864.13;;;26.35;55.98
59487;BME280;45298;54.918;73.504;2023-07-29T10:16:57;98890.44;;;26.34;56.00
59487;BME280;45298;54.918;73.504;2023-07-29T10:19:27;98873.69;;;26.37;55.99
59487;BME280;45298;54.918;73.504;2023-07-29T10:21:59;98874.13;;;26.53;55.68
59487;BME280;45298;54.918;73.504;2023-07-29T10:24:32;98883.28;;;26.40;56.19
59487;BME280;45298;54.918;73.504;2023-07-29T10:27:02;98879.22;;;26.31;56.20
59487;BME280;45298;54.918;73.504;2023-07-29T10:29:38;98860.78;;;26.33;56.50
59487;BME280;45298;54.918;73.504;2023-07-29T10:32:08;98874.53;;;26.38;56.46
59487;BME280;45298;54.918;73.504;2023-07-29T10:34:39;98872.47;;;26.33;56.13
59487;BME280;45298;54.918;73.504;2023-07-29T10:37:09;98872.28;;;26.35;56.78
59487;BME280;45298;54.918;73.504;2023-07-29T10:39:39;98874.31;;;26.21;56.87
59487;BME280;45298;54.918;73.504;2023-07-29T10:42:11;98868.03;;;26.20;57.12
59487;BME280;45298;54.918;73.504;2023-07-29T10:49:45;98829.75;;;26.71;55.77
59487;BME280;45298;54.918;73.504;2023-07-29T10:52:15;98866.56;;;27.04;55.79
59487;BME280;45298;54.918;73.504;2023-07-29T10:54:46;98843.50;;;26.76;55.35
59487;BME280;45298;54.918;73.504;2023-07-29T10:57:37;98864.84;;;26.42;55.97
59487;BME280;45298;54.918;73.504;2023-07-29T11:00:06;98857.25;;;26.14;56.18
59487;BME280;45298;54.918;73.504;2023-07-29T11:02:37;98860.19;;;26.12;55.77
59487;BME280;45298;54.918;73.504;2023-07-29T11:05:26;98862.56;;;26.02;55.75
59487;BME280;45298;54.918;73.504;2023-07-29T11:07:55;98853.28;;;25.91;55.73
59487;BME280;45298;54.918;73.504;2023-07-29T11:10:24;98855.47;;;26.01;56.07
59487;BME280;45298;54.918;73.504;2023-07-29T11:12:54;98865.31;;;26.20;55.79
59487;BME280;45298;54.918;73.504;2023-07-29T11:15:26;98845.63;;;26.25;55.66
59487;BME280;45298;54.918;73.504;2023-07-29T11:17:57;98861.91;;;26.44;55.74
59487;BME280;45298;54.918;73.504;2023-07-29T11:20:31;98852.16;;;26.54;54.98
59487;BME280;45298;54.918;73.504;2023-07-29T11:23:02;98859.72;;;26.52;55.47
59487;BME280;45298;54.918;73.504;2023-07-29T11:25:32;98864.69;;;26.55;55.42
59487;BME280;45298;54.918;73.504;2023-07-29T11:28:02;98864.41;;;26.45;55.72
59487;BME280;45298;54.918;73.504;2023-07-29T11:30:34;98872.03;;;26.36;55.95
59487;BME280;45298;54.918;73.504;2023-07-29T11:33:03;98878.09;;;26.20;56.26
59487;BME280;45298;54.918;73.504;2023-07-29T11:35:32;98879.34;;;25.99;56.33
59487;BME280;45298;54.918;73.504;2023-07-29T11:38:05;98869.63;;;25.65;56.42
59487;BME280;45298;54.918;73.504;2023-07-29T11:40:34;98868.34;;;25.43;56.19
59487;BME280;45298;54.918;73.504;2023-07-29T11:43:04;98851.53;;;25.27;56.17
59487;BME280;45298;54.918;73.504;2023-07-29T11:45:33;98887.34;;;25.43;56.22
59487;BME280;45298;54.918;73.504;2023-07-29T11:48:25;98887.16;;;25.38;56.23
59487;BME280;45298;54.918;73.504;2023-07-29T11:50:55;98876.81;;;25.28;56.45
59487;BME280;45298;54.918;73.504;2023-07-29T11:53:29;98889.53;;;25.27;56.20
59487;BME280;45298;54.918;73.504;2023-07-29T11:55:59;98859.69;;;24.95;56.92
59487;BME280;45298;54.918;73.504;2023-07-29T11:58:28;98880.03;;;25.11;56.33
59487;BME280;45298;54.918;73.504;2023-07-29T12:00:58;98888.28;;;25.23;56.29
59487;BME280;45298;54.918;73.504;2023-07-29T12:03:27;98901.00;;;25.29;55.98
59487;BME280;45298;54.918;73.504;2023-07-29T12:05:57;98888.97;;;25.18;56.31
59487;BME280;45298;54.918;73.504;2023-07-29T12:08:26;98906.66;;;25.21;56.24
59487;BME280;45298;54.918;73.504;2023-07-29T12:10:56;98906.50;;;25.16;56.11
59487;BME280;45298;54.918;73.504;2023-07-29T12:13:25;98902.47;;;25.25;56.10
59487;BME280;45298;54.918;73.504;2023-07-29T12:16:03;98884.09;;;25.27;56.03
59487;BME280;45298;54.918;73.504;2023-07-29T12:18:33;98887.16;;;25.38;55.92
59487;BME280;45298;54.918;73.504;2023-07-29T12:21:02;98896.03;;;25.52;56.25
59487;BME280;45298;54.918;73.504;2023-07-29T12:23:32;98878.69;;;25.53;56.18
59487;BME280;45298;54.918;73.504;2023-07-29T12:26:01;98878.06;;;25.57;55.97
59487;BME280;45298;54.918;73.504;2023-07-29T12:28:30;98868.56;;;25.67;56.42
59487;BME280;45298;54.918;73.504;2023-07-29T12:30:59;98846.22;;;25.64;56.23
59487;BME280;45298;54.918;73.504;2023-07-29T12:33:32;98877.19;;;25.82;56.04
59487;BME280;45298;54.918;73.504;2023-07-29T12:36:02;98870.09;;;25.81;56.00
59487;BME280;45298;54.918;73.504;2023-07-29T12:38:31;98857.56;;;25.80;55.59
59487;BME280;45298;54.918;73.504;2023-07-29T12:41:00;98871.84;;;25.94;55.82
59487;BME280;45298;54.918;73.504;2023-07-29T12:43:29;98875.31;;;25.83;55.88
59487;BME280;45298;54.918;73.504;2023-07-29T12:45:58;98829.91;;;25.46;56.04
59487;BME280;45298;54.918;73.504;2023-07-29T12:48:28;98886.94;;;25.64;56.63
59487;BME280;45298;54.918;73.504;2023-07-29T12:50:57;98873.75;;;25.49;57.05
59487;BME280;45298;54.918;73.504;2023-07-29T12:53:26;98838.06;;;25.14;56.89
59487;BME280;45298;54.918;73.504;2023-07-29T12:55:55;98887.19;;;25.31;57.04
59487;BME280;45298;54.918;73.504;2023-07-29T12:58:24;98880.19;;;25.16;57.33
59487;BME280;45298;54.918;73.504;2023-07-29T13:00:53;98853.44;;;24.95;57.26
59487;BME280;45298;54.918;73.504;2023-07-29T13:03:23;98879.03;;;25.05;57.53
59487;BME280;45298;54.918;73.504;2023-07-29T13:05:52;98888.22;;;25.04;57.52
59487;BME280;45298;54.918;73.504;2023-07-29T13:08:21;98894.25;;;25.07;57.87
59487;BME280;45298;54.918;73.504;2023-07-29T13:10:51;98889.25;;;25.03;58.06
59487;BME280;45298;54.918;73.504;2023-07-29T13:13:20;98882.78;;;25.04;58.14